createdAt,value
2023-02-18T00:00:53.456Z,12.00
2023-02-18T00:03:20.146Z,12.10
2023-02-18T00:05:46.705Z,12.00
2023-02-18T00:08:13.301Z,12.10
2023-02-18T00:10:39.878Z,12.10
2023-02-18T00:13:08.678Z,12.10
2023-02-18T00:15:35.243Z,12.10
2023-02-18T00:18:01.835Z,12.10
2023-02-18T00:20:28.444Z,12.10
2023-02-18T00:22:55.324Z,12.10
2023-02-18T00:25:21.910Z,12.20
2023-02-18T00:27:48.579Z,12.10
2023-02-18T00:30:15.284Z,12.10
2023-02-18T00:32:42.098Z,12.10
2023-02-18T00:35:08.668Z,12.20
2023-02-18T00:37:35.586Z,12.20
2023-02-18T00:40:02.188Z,12.10
2023-02-18T00:42:31.361Z,12.10
2023-02-18T00:44:58.026Z,12.10
2023-02-18T00:47:24.657Z,12.10
2023-02-18T00:49:51.303Z,12.00
2023-02-18T00:52:18.065Z,11.90
2023-02-18T00:54:44.637Z,11.90
2023-02-18T00:57:11.348Z,11.80
2023-02-18T00:59:37.996Z,11.70
2023-02-18T01:02:07.479Z,11.70
2023-02-18T01:04:34.085Z,11.60
2023-02-18T01:07:00.706Z,11.60
2023-02-18T01:09:28.293Z,11.50
2023-02-18T01:11:54.998Z,11.50
2023-02-18T01:14:21.565Z,11.50
2023-02-18T01:16:48.229Z,11.40
2023-02-18T01:19:14.818Z,11.50
2023-02-18T01:21:41.771Z,11.50
2023-02-18T01:24:08.410Z,11.50
2023-02-18T01:26:35.273Z,11.60
2023-02-18T01:29:01.937Z,11.60
2023-02-18T01:31:29.021Z,11.70
2023-02-18T01:33:55.625Z,11.70
2023-02-18T01:36:22.273Z,11.70
2023-02-18T01:38:48.920Z,11.70
2023-02-18T01:41:17.710Z,11.70
2023-02-18T01:43:44.375Z,11.70
2023-02-18T01:46:11.345Z,11.70
2023-02-18T01:48:39.606Z,11.60
2023-02-18T01:51:07.249Z,11.50
2023-02-18T01:53:33.813Z,11.40
2023-02-18T01:56:00.478Z,11.40
2023-02-18T01:58:27.087Z,11.40
2023-02-18T02:00:54.046Z,11.40
2023-02-18T02:03:20.712Z,11.40
2023-02-18T02:05:47.323Z,11.40
2023-02-18T02:08:15.671Z,11.40
2023-02-18T02:10:42.297Z,11.40
2023-02-18T02:13:09.145Z,11.40
2023-02-18T02:15:35.922Z,11.50
2023-02-18T02:18:02.495Z,11.50
2023-02-18T02:20:29.122Z,11.40
2023-02-18T02:22:55.932Z,11.50
2023-02-18T02:25:22.596Z,11.50
2023-02-18T02:27:49.182Z,11.60
2023-02-18T02:30:15.875Z,11.60
2023-02-18T02:32:42.682Z,11.60
2023-02-18T02:35:09.293Z,11.50
2023-02-18T02:37:35.911Z,11.60
2023-02-18T02:40:02.601Z,11.50
2023-02-18T02:42:32.518Z,11.50
2023-02-18T02:44:59.200Z,11.50
2023-02-18T02:47:25.817Z,11.50
2023-02-18T02:49:52.449Z,11.40
2023-02-18T02:52:19.257Z,11.40
2023-02-18T02:54:46.073Z,11.30
2023-02-18T02:57:12.783Z,11.30
2023-02-18T02:59:49.535Z,11.30
2023-02-18T03:02:16.444Z,11.30
2023-02-18T03:04:43.029Z,11.30
2023-02-18T03:07:12.880Z,11.20
2023-02-18T03:09:39.476Z,11.20
2023-02-18T03:12:07.238Z,11.20
2023-02-18T03:14:34.777Z,11.10
2023-02-18T03:17:01.404Z,11.00
2023-02-18T03:19:28.089Z,11.00
2023-02-18T03:21:58.629Z,11.00
2023-02-18T03:24:25.478Z,11.00
2023-02-18T03:26:52.518Z,11.10
2023-02-18T03:29:19.390Z,11.10
2023-02-18T03:31:48.472Z,11.10
2023-02-18T03:34:15.155Z,11.10
2023-02-18T03:36:42.577Z,11.00
2023-02-18T03:39:09.213Z,11.00
2023-02-18T03:41:36.105Z,11.00
2023-02-18T03:44:03.344Z,11.00
2023-02-18T03:46:29.910Z,11.10
2023-02-18T03:48:58.125Z,11.00
2023-02-18T03:51:25.019Z,11.00
2023-02-18T03:53:51.621Z,11.00
2023-02-18T03:56:18.206Z,11.00
2023-02-18T03:58:44.869Z,11.00
2023-02-18T04:01:11.810Z,11.00
2023-02-18T04:03:38.509Z,11.00
2023-02-18T04:06:05.102Z,11.00
2023-02-18T04:08:31.705Z,10.90
2023-02-18T04:10:58.439Z,10.90
2023-02-18T04:13:25.029Z,10.90
2023-02-18T04:15:51.637Z,10.90
2023-02-18T04:18:18.250Z,10.90
2023-02-18T04:20:46.252Z,10.90
2023-02-18T04:23:12.848Z,10.90
2023-02-18T04:25:39.471Z,11.00
2023-02-18T04:28:06.154Z,10.90
2023-02-18T04:30:32.774Z,10.90
2023-02-18T04:32:59.502Z,10.90
2023-02-18T04:35:26.113Z,10.90
2023-02-18T04:37:52.729Z,10.90
2023-02-18T04:40:19.614Z,10.80
2023-02-18T04:42:46.277Z,10.80
2023-02-18T04:45:12.842Z,10.80
2023-02-18T04:47:39.503Z,10.80
2023-02-18T04:50:06.068Z,10.80
2023-02-18T04:52:32.753Z,10.80
2023-02-18T04:54:59.328Z,10.80
2023-02-18T04:57:25.937Z,10.80
2023-02-18T04:59:52.499Z,10.80
2023-02-18T05:02:21.316Z,10.80
2023-02-18T05:04:47.875Z,10.70
2023-02-18T05:07:14.485Z,10.80
2023-02-18T05:09:41.086Z,10.80
2023-02-18T05:12:07.776Z,10.80
2023-02-18T05:14:34.402Z,10.80
2023-02-18T05:17:01.018Z,10.80
2023-02-18T05:19:27.589Z,10.80
2023-02-18T05:21:55.467Z,10.80
2023-02-18T05:24:22.397Z,10.80
2023-02-18T05:26:49.001Z,10.80
2023-02-18T05:29:15.580Z,10.80
2023-02-18T05:31:42.391Z,10.80
2023-02-18T05:34:09.053Z,10.80
2023-02-18T05:36:35.640Z,10.90
2023-02-18T05:39:02.309Z,10.90
2023-02-18T05:41:28.972Z,10.90
2023-02-18T05:44:14.306Z,10.90
2023-02-18T05:46:40.922Z,10.90
2023-02-18T05:49:07.525Z,10.90
2023-02-18T05:51:35.422Z,10.90
2023-02-18T05:54:02.006Z,11.00
2023-02-18T05:56:28.636Z,11.00
2023-02-18T05:58:55.247Z,11.00
2023-02-18T06:01:23.070Z,10.90
2023-02-18T06:03:49.654Z,11.00
2023-02-18T06:06:16.373Z,11.00
2023-02-18T06:08:42.986Z,11.00
2023-02-18T06:11:10.855Z,11.00
2023-02-18T06:13:37.414Z,11.00
2023-02-18T06:16:04.053Z,11.00
2023-02-18T06:18:30.658Z,11.00
2023-02-18T06:20:58.526Z,11.00
2023-02-18T06:23:25.094Z,11.00
2023-02-18T06:25:51.678Z,11.00
2023-02-18T06:28:18.251Z,11.00
2023-02-18T06:30:44.868Z,11.00
2023-02-18T06:33:11.466Z,11.00
2023-02-18T06:35:38.092Z,11.00
2023-02-18T06:38:04.662Z,11.00
2023-02-18T06:40:31.262Z,11.00
2023-02-18T06:42:58.000Z,11.00
2023-02-18T06:45:24.599Z,11.00
2023-02-18T06:47:51.185Z,11.00
2023-02-18T06:50:19.529Z,11.00
2023-02-18T06:52:46.285Z,11.00
2023-02-18T06:55:12.917Z,11.10
2023-02-18T06:57:39.481Z,11.10
2023-02-18T07:00:06.155Z,11.10
2023-02-18T07:02:32.729Z,11.10
2023-02-18T07:04:59.346Z,11.10
2023-02-18T07:07:25.907Z,11.10
2023-02-18T07:09:52.630Z,11.10
2023-02-18T07:12:19.484Z,11.10
2023-02-18T07:14:46.337Z,11.10
2023-02-18T07:17:12.938Z,11.10
2023-02-18T07:19:39.520Z,11.10
2023-02-18T07:22:06.309Z,11.20
2023-02-18T07:24:32.902Z,11.10
2023-02-18T07:26:59.520Z,11.20
2023-02-18T07:29:26.126Z,11.10
2023-02-18T07:31:54.170Z,11.20
2023-02-18T07:34:20.830Z,11.20
2023-02-18T07:36:47.394Z,11.10
2023-02-18T07:39:14.053Z,11.20
2023-02-18T07:41:40.681Z,11.20
2023-02-18T07:44:14.696Z,11.20
2023-02-18T07:46:41.528Z,11.20
2023-02-18T07:49:08.221Z,11.20
2023-02-18T07:51:37.744Z,11.20
2023-02-18T07:54:04.391Z,11.20
2023-02-18T07:56:31.015Z,11.30
2023-02-18T07:58:57.580Z,11.30
2023-02-18T08:01:24.372Z,11.30
2023-02-18T08:03:51.009Z,11.30
2023-02-18T08:06:17.680Z,11.40
2023-02-18T08:08:44.291Z,11.40
2023-02-18T08:11:29.826Z,11.40
2023-02-18T08:13:56.428Z,11.40
2023-02-18T08:16:23.050Z,11.40
2023-02-18T08:18:49.741Z,11.50
2023-02-18T08:21:17.552Z,11.50
2023-02-18T08:23:44.316Z,11.50
2023-02-18T08:26:11.074Z,11.50
2023-02-18T08:28:41.589Z,11.60
2023-02-18T08:31:08.223Z,11.60
2023-02-18T08:33:35.467Z,11.60
2023-02-18T08:36:02.045Z,11.70
2023-02-18T08:38:28.650Z,11.70
2023-02-18T08:40:55.345Z,11.70
2023-02-18T08:43:21.953Z,11.70
2023-02-18T08:45:48.614Z,11.70
2023-02-18T08:48:20.350Z,11.70
2023-02-18T08:50:47.386Z,11.70
2023-02-18T08:53:14.086Z,11.70
2023-02-18T08:55:40.716Z,11.70
2023-02-18T08:58:07.373Z,11.80
2023-02-18T09:00:33.953Z,11.80
2023-02-18T09:03:02.816Z,11.90
2023-02-18T09:05:29.395Z,12.00
2023-02-18T09:07:55.995Z,12.00
2023-02-18T09:10:22.895Z,12.00
2023-02-18T09:12:50.757Z,12.00
2023-02-18T09:15:17.360Z,12.00
2023-02-18T09:17:44.352Z,12.00
2023-02-18T09:20:10.945Z,12.10
2023-02-18T09:22:37.837Z,12.20
2023-02-18T09:25:04.504Z,12.30
2023-02-18T09:27:31.168Z,12.40
2023-02-18T09:29:57.844Z,12.40
2023-02-18T09:32:34.301Z,12.40
2023-02-18T09:35:03.418Z,12.40
2023-02-18T09:37:30.030Z,12.40
2023-02-18T09:39:56.650Z,12.40
2023-02-18T09:42:24.557Z,12.50
2023-02-18T09:44:51.161Z,12.40
2023-02-18T09:47:17.717Z,12.40
2023-02-18T09:49:45.493Z,12.30
2023-02-18T09:52:13.159Z,12.30
2023-02-18T09:54:39.762Z,12.30
2023-02-18T09:57:06.370Z,12.30
2023-02-18T09:59:32.961Z,12.30
2023-02-18T10:02:02.415Z,12.30
2023-02-18T10:04:30.744Z,12.40
2023-02-18T10:06:57.313Z,12.40
2023-02-18T10:09:24.093Z,12.50
2023-02-18T10:11:51.977Z,12.60
2023-02-18T10:14:18.596Z,12.70
2023-02-18T10:16:45.189Z,12.80
2023-02-18T10:19:11.796Z,12.90
2023-02-18T10:21:40.652Z,13.00
2023-02-18T10:24:07.282Z,13.10
2023-02-18T10:26:33.857Z,13.10
2023-02-18T10:29:00.502Z,13.00
2023-02-18T10:31:27.477Z,13.10
2023-02-18T10:33:54.088Z,13.10
2023-02-18T10:36:20.657Z,13.20
2023-02-18T10:38:47.261Z,13.20
2023-02-18T10:41:14.126Z,13.20
2023-02-18T10:43:40.746Z,13.20
2023-02-18T10:46:07.358Z,13.20
2023-02-18T10:48:34.180Z,13.20
2023-02-18T10:51:00.911Z,13.20
2023-02-18T10:53:27.488Z,13.20
2023-02-18T10:55:56.571Z,13.10
2023-02-18T10:58:23.391Z,13.10
2023-02-18T11:00:50.004Z,13.10
2023-02-18T11:03:16.954Z,13.20
2023-02-18T11:05:43.600Z,13.30
2023-02-18T11:08:10.167Z,13.20
2023-02-18T11:10:36.832Z,13.20
2023-02-18T11:13:03.735Z,13.20
2023-02-18T11:15:30.297Z,13.20
2023-02-18T11:17:56.872Z,13.20
2023-02-18T11:20:23.474Z,13.30
2023-02-18T11:22:50.156Z,13.30
2023-02-18T11:25:16.731Z,13.30
2023-02-18T11:27:43.310Z,13.30
2023-02-18T11:30:09.903Z,13.20
2023-02-18T11:32:36.854Z,13.20
2023-02-18T11:35:03.476Z,13.20
2023-02-18T11:37:30.090Z,13.10
2023-02-18T11:39:56.787Z,13.10
2023-02-18T11:42:24.632Z,13.10
2023-02-18T11:44:52.298Z,13.10
2023-02-18T11:47:19.988Z,13.10
2023-02-18T11:49:46.748Z,13.10
2023-02-18T11:52:14.462Z,13.10
2023-02-18T11:54:41.085Z,13.10
2023-02-18T11:57:11.161Z,13.20
2023-02-18T11:59:50.249Z,13.20
2023-02-18T12:05:59.735Z,13.20
2023-02-18T12:08:26.410Z,13.30
2023-02-18T12:10:53.270Z,13.20
2023-02-18T12:13:19.897Z,13.20
2023-02-18T12:15:46.537Z,13.20
2023-02-18T12:18:14.868Z,13.20
2023-02-18T12:20:41.621Z,13.20
2023-02-18T12:23:09.358Z,13.30
2023-02-18T12:25:37.448Z,13.30
2023-02-18T12:28:04.173Z,13.30
2023-02-18T12:30:30.756Z,13.30
2023-02-18T12:32:59.370Z,13.30
2023-02-18T12:35:25.938Z,13.30
2023-02-18T12:37:52.630Z,13.30
2023-02-18T12:40:20.884Z,13.30
2023-02-18T12:42:49.612Z,13.20
2023-02-18T12:45:16.194Z,13.30
2023-02-18T12:47:42.774Z,13.30
2023-02-18T12:50:12.741Z,13.30
2023-02-18T12:52:39.456Z,13.20
2023-02-18T12:55:06.119Z,13.00
2023-02-18T12:57:32.740Z,13.00
2023-02-18T12:59:59.352Z,12.90
2023-02-18T13:02:26.209Z,12.90
2023-02-18T13:04:52.854Z,12.90
2023-02-18T13:07:19.418Z,12.90
2023-02-18T13:09:46.040Z,12.80
2023-02-18T13:12:13.913Z,12.80
2023-02-18T13:14:40.465Z,12.80
2023-02-18T13:17:07.051Z,12.80
2023-02-18T13:19:33.612Z,12.80
2023-02-18T13:22:00.348Z,12.90
2023-02-18T13:24:27.402Z,12.80
2023-02-18T13:26:54.016Z,12.90
2023-02-18T13:29:20.604Z,12.80
2023-02-18T13:31:47.661Z,12.80
2023-02-18T13:34:14.308Z,12.80
2023-02-18T13:36:41.161Z,12.80
2023-02-18T13:39:08.636Z,12.90
2023-02-18T13:41:35.398Z,13.00
2023-02-18T13:44:02.021Z,13.20
2023-02-18T13:46:28.850Z,13.30
2023-02-18T13:48:55.463Z,13.30
2023-02-18T13:51:22.263Z,13.40
2023-02-18T13:53:48.818Z,13.40
2023-02-18T13:56:15.447Z,13.40
2023-02-18T13:58:42.609Z,13.50
2023-02-18T14:01:10.518Z,13.40
2023-02-18T14:03:38.165Z,13.40
2023-02-18T14:06:04.868Z,13.30
2023-02-18T14:08:31.451Z,13.20
2023-02-18T14:10:58.272Z,13.20
2023-02-18T14:13:24.913Z,13.20
2023-02-18T14:15:51.559Z,13.20
2023-02-18T14:18:18.850Z,13.20
2023-02-18T14:20:45.527Z,13.10
2023-02-18T14:23:12.123Z,13.10
2023-02-18T14:25:38.759Z,13.00
2023-02-18T14:28:05.412Z,13.00
2023-02-18T14:30:32.174Z,12.90
2023-02-18T14:32:58.983Z,12.90
2023-02-18T14:35:25.589Z,13.00
2023-02-18T14:37:52.409Z,13.00
2023-02-18T14:40:18.995Z,13.00
2023-02-18T14:42:45.655Z,13.00
2023-02-18T14:45:12.294Z,13.00
2023-02-18T14:47:38.869Z,12.90
2023-02-18T14:50:05.631Z,12.90
2023-02-18T14:52:32.484Z,12.90
2023-02-18T14:54:59.089Z,12.80
2023-02-18T14:57:25.711Z,12.70
2023-02-18T14:59:52.287Z,12.70
2023-02-18T15:02:20.348Z,12.70
2023-02-18T15:04:47.483Z,12.70
2023-02-18T15:07:14.216Z,12.70
2023-02-18T15:09:40.828Z,12.70
2023-02-18T15:12:08.759Z,12.80
2023-02-18T15:14:35.400Z,12.80
2023-02-18T15:17:01.968Z,12.90
2023-02-18T15:19:28.590Z,13.10
2023-02-18T15:21:55.490Z,13.10
2023-02-18T15:24:22.083Z,13.20
2023-02-18T15:26:52.140Z,13.20
2023-02-18T15:29:19.764Z,13.30
2023-02-18T15:31:46.586Z,13.30
2023-02-18T15:34:13.332Z,13.30
2023-02-18T15:36:39.947Z,13.30
2023-02-18T15:39:06.552Z,13.30
2023-02-18T15:41:33.334Z,13.30
2023-02-18T15:43:59.889Z,13.30
2023-02-18T15:46:26.573Z,13.20
2023-02-18T15:48:53.206Z,13.20
2023-02-18T15:51:22.200Z,13.10
2023-02-18T15:53:49.156Z,13.10
2023-02-18T15:56:15.796Z,13.10
2023-02-18T15:58:42.559Z,13.10
2023-02-18T16:01:09.627Z,13.10
2023-02-18T16:03:36.411Z,13.10
2023-02-18T16:06:03.093Z,13.00
2023-02-18T16:08:29.693Z,13.00
2023-02-18T16:10:56.326Z,13.00
2023-02-18T16:13:24.198Z,13.00
2023-02-18T16:15:52.416Z,13.00
2023-02-18T16:18:18.991Z,13.00
2023-02-18T16:20:45.611Z,12.90
2023-02-18T16:23:12.232Z,12.90
2023-02-18T16:25:38.990Z,13.00
2023-02-18T16:28:05.567Z,12.90
2023-02-18T16:30:32.933Z,13.00
2023-02-18T16:33:00.736Z,12.90
2023-02-18T16:35:27.869Z,13.00
2023-02-18T16:37:57.691Z,12.90
2023-02-18T16:40:24.322Z,13.00
2023-02-18T16:42:52.177Z,13.00
2023-02-18T16:45:18.867Z,13.00
2023-02-18T16:47:45.488Z,13.00
2023-02-18T16:50:12.072Z,13.00
2023-02-18T16:52:38.933Z,13.00
2023-02-18T16:55:05.601Z,12.90
2023-02-18T16:57:32.208Z,12.90
2023-02-18T16:59:58.984Z,12.90
2023-02-18T17:02:25.689Z,12.90
2023-02-18T17:04:57.245Z,12.90
2023-02-18T17:07:23.897Z,12.90
2023-02-18T17:09:50.509Z,12.80
2023-02-18T17:12:17.112Z,12.70
2023-02-18T17:14:43.692Z,12.60
2023-02-18T17:17:10.342Z,12.50
2023-02-18T17:19:36.973Z,12.40
2023-02-18T17:22:03.608Z,12.40
2023-02-18T17:24:30.194Z,12.40
2023-02-18T17:26:56.784Z,12.40
2023-02-18T17:29:23.400Z,12.40
2023-02-18T17:31:50.476Z,12.40
2023-02-18T17:34:17.269Z,12.40
2023-02-18T17:36:45.450Z,12.50
2023-02-18T17:39:12.053Z,12.50
2023-02-18T17:41:39.830Z,12.50
2023-02-18T17:44:06.469Z,12.50
2023-02-18T17:46:33.135Z,12.50
2023-02-18T17:49:01.571Z,12.60
2023-02-18T17:51:29.580Z,12.50
2023-02-18T17:53:56.154Z,12.50
2023-02-18T17:56:22.811Z,12.40
2023-02-18T17:58:49.427Z,12.50
2023-02-18T18:01:18.752Z,12.50
2023-02-18T18:03:45.416Z,12.50
2023-02-18T18:06:12.227Z,12.40
2023-02-18T18:08:38.820Z,12.50
2023-02-18T18:11:06.133Z,12.40
2023-02-18T18:13:32.781Z,12.40
2023-02-18T18:15:59.426Z,12.40
2023-02-18T18:18:26.032Z,12.30
2023-02-18T18:20:52.727Z,12.30
2023-02-18T18:23:19.328Z,12.30
2023-02-18T18:25:46.156Z,12.20
2023-02-18T18:28:12.801Z,12.20
2023-02-18T18:30:39.559Z,12.20
2023-02-18T18:33:06.286Z,12.20
2023-02-18T18:35:32.942Z,12.10
2023-02-18T18:37:59.599Z,12.10
2023-02-18T18:40:26.681Z,12.10
2023-02-18T18:42:54.569Z,12.00
2023-02-18T18:45:21.210Z,12.00
2023-02-18T18:47:47.861Z,12.00
2023-02-18T18:50:14.499Z,12.00
2023-02-18T18:52:43.496Z,12.00
2023-02-18T18:55:10.120Z,11.90
2023-02-18T18:57:36.734Z,11.90
2023-02-18T19:00:03.598Z,11.80
2023-02-18T19:02:31.486Z,11.80
2023-02-18T19:04:58.095Z,11.80
2023-02-18T19:07:24.655Z,11.80
2023-02-18T19:09:51.241Z,11.70
2023-02-18T19:12:17.956Z,11.70
2023-02-18T19:14:44.871Z,11.70
2023-02-18T19:17:11.449Z,11.60
2023-02-18T19:19:38.022Z,11.60
2023-02-18T19:22:04.686Z,11.60
2023-02-18T19:24:31.274Z,11.50
2023-02-18T19:26:57.845Z,11.50
2023-02-18T19:29:24.493Z,11.50
2023-02-18T19:31:51.449Z,11.40
2023-02-18T19:34:18.151Z,11.40
2023-02-18T19:36:46.567Z,11.40
2023-02-18T19:39:13.213Z,11.40
2023-02-18T19:41:40.095Z,11.40
2023-02-18T19:44:06.705Z,11.40
2023-02-18T19:46:33.307Z,11.30
2023-02-18T19:48:59.924Z,11.30
2023-02-18T19:51:26.898Z,11.20
2023-02-18T19:53:54.504Z,11.30
2023-02-18T19:56:21.439Z,11.20
2023-02-18T19:58:48.114Z,11.20
2023-02-18T20:01:15.804Z,11.10
2023-02-18T20:03:42.498Z,11.10
2023-02-18T20:06:09.081Z,11.10
2023-02-18T20:08:36.916Z,11.00
2023-02-18T20:11:03.735Z,11.00
2023-02-18T20:13:30.392Z,11.00
2023-02-18T20:15:56.997Z,10.90
2023-02-18T20:18:23.793Z,10.80
2023-02-18T20:20:50.466Z,10.80
2023-02-18T20:23:17.070Z,10.70
2023-02-18T20:25:43.673Z,10.70
2023-02-18T20:28:10.281Z,10.60
2023-02-18T20:30:36.844Z,10.60
2023-02-18T20:33:03.927Z,10.60
2023-02-18T20:35:30.521Z,10.50
2023-02-18T20:37:57.141Z,10.60
2023-02-18T20:40:23.720Z,10.60
2023-02-18T20:42:50.567Z,10.70
2023-02-18T20:45:17.153Z,10.80
2023-02-18T20:47:43.736Z,10.80
2023-02-18T20:50:10.298Z,10.90
2023-02-18T20:52:36.969Z,10.90
2023-02-18T20:55:03.668Z,10.90
2023-02-18T20:57:30.299Z,10.90
2023-02-18T20:59:58.392Z,11.00
2023-02-18T21:02:26.323Z,11.00
2023-02-18T21:04:52.906Z,11.00
2023-02-18T21:07:19.506Z,11.00
2023-02-18T21:09:46.090Z,11.00
2023-02-18T21:12:13.003Z,11.00
2023-02-18T21:14:39.646Z,11.00
2023-02-18T21:17:08.462Z,11.00
2023-02-18T21:19:35.825Z,11.00
2023-02-18T21:22:04.637Z,11.00
2023-02-18T21:24:31.962Z,11.00
2023-02-18T21:26:59.843Z,11.00
2023-02-18T21:29:26.430Z,11.00
2023-02-18T21:31:53.408Z,11.00
2023-02-18T21:34:21.063Z,11.00
2023-02-18T21:36:47.736Z,11.00
2023-02-18T21:39:14.435Z,11.00
2023-02-18T21:41:41.576Z,11.00
2023-02-18T21:44:09.188Z,11.00
2023-02-18T21:46:36.669Z,11.00
2023-02-18T21:49:05.743Z,11.00
2023-02-18T21:51:51.566Z,11.00
2023-02-18T21:54:18.356Z,11.00
2023-02-18T21:56:44.990Z,11.00
2023-02-18T21:59:11.657Z,11.00
2023-02-18T22:01:38.549Z,11.00
2023-02-18T22:04:05.183Z,11.00
2023-02-18T22:06:31.768Z,10.90
2023-02-18T22:08:58.348Z,10.90
2023-02-18T22:11:25.169Z,10.90
2023-02-18T22:13:51.741Z,10.90
2023-02-18T22:16:18.334Z,10.90
2023-02-18T22:18:45.066Z,10.90
2023-02-18T22:21:12.813Z,10.80
2023-02-18T22:23:39.586Z,10.80
2023-02-18T22:26:06.212Z,10.80
2023-02-18T22:28:32.801Z,10.80
2023-02-18T22:30:59.401Z,10.70
2023-02-18T22:33:25.994Z,10.60
2023-02-18T22:35:52.593Z,10.60
2023-02-18T22:38:19.190Z,10.60
2023-02-18T22:40:45.826Z,10.60
2023-02-18T22:43:12.526Z,10.60
2023-02-18T22:45:39.227Z,10.60
2023-02-18T22:48:05.865Z,10.60
2023-02-18T22:50:32.424Z,10.60
2023-02-18T22:52:59.338Z,10.50
2023-02-18T22:55:25.909Z,10.50
2023-02-18T22:57:52.530Z,10.40
2023-02-18T23:00:20.116Z,10.40
2023-02-18T23:02:48.040Z,10.50
2023-02-18T23:05:14.612Z,10.40
2023-02-18T23:07:41.266Z,10.30
2023-02-18T23:10:07.821Z,10.20
2023-02-18T23:12:34.497Z,10.10
2023-02-18T23:15:01.107Z,10.10
2023-02-18T23:17:27.724Z,10.00
2023-02-18T23:19:54.298Z,10.00
2023-02-18T23:22:21.189Z,9.90
2023-02-18T23:24:49.453Z,9.90
2023-02-18T23:27:16.117Z,9.90
2023-02-18T23:29:42.741Z,9.80
2023-02-18T23:32:09.566Z,9.70
2023-02-18T23:34:37.599Z,9.70
2023-02-18T23:37:04.185Z,9.60
2023-02-18T23:39:30.774Z,9.60
2023-02-18T23:41:57.584Z,9.60
2023-02-18T23:44:24.400Z,9.50
2023-02-18T23:46:50.995Z,9.50
2023-02-18T23:49:17.567Z,9.50
2023-02-18T23:51:45.356Z,9.40
2023-02-18T23:54:11.947Z,9.50
2023-02-18T23:56:38.646Z,9.50
2023-02-18T23:59:05.231Z,9.40
